createdAt,value
2018-10-18T00:01:31.482Z,47.25
2018-10-18T00:04:01.554Z,51.60
2018-10-18T00:06:31.577Z,44.38
2018-10-18T00:09:01.390Z,42.95
2018-10-18T00:11:31.402Z,43.48
2018-10-18T00:14:01.398Z,44.03
2018-10-18T00:16:31.412Z,43.02
2018-10-18T00:19:01.661Z,47.23
2018-10-18T00:21:31.554Z,40.60
2018-10-18T00:24:01.554Z,43.95
2018-10-18T00:26:31.582Z,47.33
2018-10-18T00:29:01.539Z,42.05
2018-10-18T00:31:31.602Z,43.67
2018-10-18T00:34:01.571Z,43.83
2018-10-18T00:36:31.631Z,39.90
2018-10-18T00:39:01.647Z,46.33
2018-10-18T00:41:31.703Z,41.55
2018-10-18T00:44:01.607Z,50.83
2018-10-18T00:46:31.594Z,54.25
2018-10-18T00:49:01.510Z,50.73
2018-10-18T00:51:31.727Z,60.15
2018-10-18T00:54:01.795Z,42.00
2018-10-18T00:56:31.713Z,47.83
2018-10-18T00:59:01.892Z,44.65
2018-10-18T01:01:31.674Z,41.58
2018-10-18T01:04:01.636Z,52.75
2018-10-18T01:06:31.713Z,43.45
2018-10-18T01:09:01.685Z,43.42
2018-10-18T01:11:31.716Z,47.88
2018-10-18T01:14:01.829Z,47.78
2018-10-18T01:16:31.855Z,67.22
2018-10-18T01:19:01.752Z,47.30
2018-10-18T01:21:32.631Z,41.35
2018-10-18T01:24:01.992Z,47.25
2018-10-18T01:26:32.082Z,46.63
2018-10-18T01:29:02.004Z,48.87
2018-10-18T01:31:31.852Z,42.73
2018-10-18T01:34:02.049Z,91.00
2018-10-18T01:36:31.829Z,61.13
2018-10-18T01:39:01.958Z,50.38
2018-10-18T01:41:31.876Z,42.75
2018-10-18T01:44:02.021Z,41.50
2018-10-18T01:46:32.005Z,41.18
2018-10-18T01:49:02.067Z,45.65
2018-10-18T01:51:32.075Z,43.52
2018-10-18T01:54:02.059Z,45.65
2018-10-18T01:56:32.051Z,41.48
2018-10-18T01:59:02.031Z,44.20
2018-10-18T02:01:32.065Z,44.58
2018-10-18T02:04:02.177Z,37.80
2018-10-18T02:06:32.057Z,40.48
2018-10-18T02:09:02.052Z,36.98
2018-10-18T02:11:32.107Z,38.85
2018-10-18T02:14:02.167Z,38.95
2018-10-18T02:16:32.188Z,42.55
2018-10-18T02:19:02.379Z,41.75
2018-10-18T02:21:32.174Z,40.52
2018-10-18T02:24:02.350Z,42.48
2018-10-18T02:26:32.204Z,35.70
2018-10-18T02:29:02.222Z,40.88
2018-10-18T02:31:32.147Z,41.35
2018-10-18T02:34:02.238Z,38.63
2018-10-18T02:36:32.332Z,34.95
2018-10-18T02:39:02.203Z,40.77
2018-10-18T02:41:32.428Z,47.88
2018-10-18T02:44:02.406Z,36.35
2018-10-18T02:46:32.415Z,39.80
2018-10-18T02:49:02.555Z,41.68
2018-10-18T02:51:32.300Z,43.04
2018-10-18T02:54:03.780Z,44.08
2018-10-18T02:56:32.903Z,34.50
2018-10-18T02:59:02.376Z,43.83
2018-10-18T03:01:32.453Z,39.26
2018-10-18T03:04:02.395Z,36.73
2018-10-18T03:06:32.386Z,36.64
2018-10-18T03:09:02.407Z,44.58
2018-10-18T03:11:32.546Z,32.94
2018-10-18T03:14:02.440Z,38.58
2018-10-18T03:16:33.035Z,41.94
2018-10-18T03:19:02.612Z,38.90
2018-10-18T03:21:32.830Z,39.80
2018-10-18T03:24:02.984Z,43.28
2018-10-18T03:26:32.618Z,35.26
2018-10-18T03:29:02.721Z,40.35
2018-10-18T03:31:32.567Z,35.98
2018-10-18T03:34:02.698Z,40.60
2018-10-18T03:36:32.743Z,39.34
2018-10-18T03:39:02.667Z,32.75
2018-10-18T03:41:33.053Z,34.72
2018-10-18T03:44:02.870Z,33.18
2018-10-18T03:46:32.782Z,36.48
2018-10-18T03:49:04.110Z,43.60
2018-10-18T03:51:33.387Z,38.70
2018-10-18T03:54:02.989Z,38.13
2018-10-18T03:56:32.862Z,36.86
2018-10-18T03:59:02.907Z,34.67
2018-10-18T04:01:32.906Z,40.86
2018-10-18T04:04:02.943Z,42.08
2018-10-18T04:06:32.902Z,30.23
2018-10-18T04:09:02.984Z,34.60
2018-10-18T04:11:32.967Z,46.16
2018-10-18T04:14:03.019Z,39.25
2018-10-18T04:16:33.059Z,47.56
2018-10-18T04:19:03.162Z,36.70
2018-10-18T04:21:33.006Z,39.50
2018-10-18T04:24:03.158Z,43.30
2018-10-18T04:26:33.142Z,43.56
2018-10-18T04:29:03.169Z,39.18
2018-10-18T04:31:33.212Z,41.33
2018-10-18T04:34:03.186Z,38.80
2018-10-18T04:36:33.208Z,40.38
2018-10-18T04:39:03.490Z,44.60
2018-10-18T04:41:33.221Z,52.62
2018-10-18T04:44:03.245Z,46.05
2018-10-18T04:46:33.219Z,45.58
2018-10-18T04:49:03.335Z,48.78
2018-10-18T04:51:33.515Z,49.55
2018-10-18T04:54:03.512Z,45.35
2018-10-18T04:56:33.409Z,50.10
2018-10-18T04:59:03.223Z,49.93
2018-10-18T05:01:33.620Z,50.97
2018-10-18T05:04:03.238Z,47.50
2018-10-18T05:06:33.438Z,44.38
2018-10-18T05:09:03.314Z,40.40
2018-10-18T05:11:33.473Z,48.24
2018-10-18T05:14:03.397Z,61.00
2018-10-18T05:16:33.470Z,41.35
2018-10-18T05:19:03.541Z,45.08
2018-10-18T05:21:33.442Z,48.13
2018-10-18T05:24:03.739Z,41.13
2018-10-18T05:26:33.518Z,42.02
2018-10-18T05:29:03.579Z,39.78
2018-10-18T05:31:33.673Z,46.04
2018-10-18T05:34:03.593Z,49.30
2018-10-18T05:36:34.873Z,50.64
2018-10-18T05:39:05.906Z,46.20
2018-10-18T05:41:35.077Z,48.30
2018-10-18T05:44:04.549Z,43.40
2018-10-18T05:46:33.761Z,45.08
2018-10-18T05:49:03.776Z,48.02
2018-10-18T05:51:33.722Z,48.26
2018-10-18T05:54:03.823Z,53.35
2018-10-18T05:56:33.746Z,46.04
2018-10-18T05:59:03.822Z,54.55
2018-10-18T06:01:33.806Z,46.42
2018-10-18T06:04:03.739Z,40.58
2018-10-18T06:06:33.764Z,49.04
2018-10-18T06:09:04.231Z,49.20
2018-10-18T06:11:34.047Z,48.95
2018-10-18T06:14:03.954Z,44.73
2018-10-18T06:16:34.086Z,41.74
2018-10-18T06:19:04.119Z,49.35
2018-10-18T06:21:34.075Z,44.66
2018-10-18T06:24:04.059Z,53.42
2018-10-18T06:26:34.119Z,43.78
2018-10-18T06:29:04.083Z,55.40
2018-10-18T06:31:34.203Z,45.94
2018-10-18T06:34:04.230Z,45.50
2018-10-18T06:36:34.222Z,47.17
2018-10-18T06:39:05.411Z,43.95
2018-10-18T06:41:34.613Z,51.53
2018-10-18T06:44:04.259Z,49.18
2018-10-18T06:46:34.342Z,50.10
2018-10-18T06:49:04.390Z,50.85
2018-10-18T06:51:34.250Z,57.98
2018-10-18T06:54:04.385Z,60.50
2018-10-18T06:56:34.370Z,64.46
2018-10-18T06:59:04.385Z,71.07
2018-10-18T07:01:34.428Z,80.30
2018-10-18T07:04:04.403Z,64.80
2018-10-18T07:06:34.512Z,81.47
2018-10-18T07:09:06.405Z,56.37
2018-10-18T07:11:35.522Z,60.40
2018-10-18T07:14:04.695Z,55.40
2018-10-18T07:16:35.662Z,48.50
2018-10-18T07:19:04.926Z,59.47
2018-10-18T07:21:34.534Z,56.30
2018-10-18T07:24:04.658Z,51.77
2018-10-18T07:26:34.642Z,150.32
2018-10-18T07:29:04.666Z,72.50
2018-10-18T07:31:34.679Z,53.80
2018-10-18T07:34:04.858Z,57.50
2018-10-18T07:36:34.795Z,56.80
2018-10-18T07:39:07.824Z,64.30
2018-10-18T07:41:36.982Z,77.20
2018-10-18T07:44:06.223Z,69.27
2018-10-18T07:46:35.494Z,59.65
2018-10-18T07:49:05.237Z,66.33
2018-10-18T07:51:35.131Z,61.02
2018-10-18T07:54:05.134Z,70.78
2018-10-18T07:56:34.838Z,60.48
2018-10-18T07:59:05.106Z,56.33
2018-10-18T08:01:34.895Z,65.88
2018-10-18T08:04:05.019Z,57.80
2018-10-18T08:06:35.019Z,62.14
2018-10-18T08:09:08.489Z,58.15
2018-10-18T08:11:37.641Z,64.07
2018-10-18T08:14:06.837Z,66.03
2018-10-18T08:16:36.014Z,67.80
2018-10-18T08:19:06.025Z,69.83
2018-10-18T08:21:35.318Z,80.32
2018-10-18T08:24:05.172Z,83.72
2018-10-18T08:26:36.393Z,69.98
2018-10-18T08:29:05.753Z,77.53
2018-10-18T08:31:35.283Z,82.08
2018-10-18T08:34:05.323Z,85.30
2018-10-18T08:36:35.254Z,73.17
2018-10-18T08:39:08.001Z,82.35
2018-10-18T08:41:37.163Z,91.40
2018-10-18T08:44:06.369Z,84.87
2018-10-18T08:46:35.410Z,88.77
2018-10-18T08:49:05.649Z,96.40
2018-10-18T08:51:35.455Z,102.20
2018-10-18T08:54:05.476Z,106.73
2018-10-18T08:56:35.543Z,126.90
2018-10-18T08:59:05.705Z,101.53
2018-10-18T09:01:35.558Z,99.84
2018-10-18T09:04:05.559Z,105.17
2018-10-18T09:06:35.543Z,106.07
2018-10-18T09:09:08.206Z,100.75
2018-10-18T09:11:37.478Z,92.90
2018-10-18T09:14:07.707Z,97.53
2018-10-18T09:16:36.881Z,146.90
2018-10-18T09:19:06.130Z,109.53
2018-10-18T09:21:35.758Z,113.98
2018-10-18T09:24:06.284Z,99.72
2018-10-18T09:26:35.873Z,113.17
2018-10-18T09:29:05.969Z,98.90
2018-10-18T09:31:35.850Z,100.56
2018-10-18T09:34:06.199Z,102.20
2018-10-18T09:36:35.986Z,99.67
2018-10-18T09:39:07.771Z,106.47
2018-10-18T09:41:36.998Z,102.85
2018-10-18T09:44:06.856Z,106.93
2018-10-18T09:46:36.958Z,102.15
2018-10-18T09:49:06.276Z,110.60
2018-10-18T09:51:36.045Z,102.16
2018-10-18T09:54:06.181Z,101.95
2018-10-18T09:56:36.151Z,103.84
2018-10-18T09:59:06.398Z,106.67
2018-10-18T10:01:41.424Z,111.00
2018-10-18T10:04:10.699Z,90.30
2018-10-18T10:06:39.981Z,98.40
2018-10-18T10:09:09.441Z,97.75
2018-10-18T10:11:38.754Z,95.20
2018-10-18T10:14:07.847Z,97.03
2018-10-18T10:16:37.029Z,91.20
2018-10-18T10:19:06.622Z,96.87
2018-10-18T10:21:36.354Z,98.37
2018-10-18T10:24:06.856Z,81.45
2018-10-18T10:26:36.601Z,95.42
2018-10-18T10:29:06.475Z,96.63
2018-10-18T10:31:36.413Z,103.85
2018-10-18T10:34:06.495Z,89.20
2018-10-18T10:36:36.497Z,101.60
2018-10-18T10:39:08.620Z,111.05
2018-10-18T10:41:37.705Z,127.58
2018-10-18T10:44:08.434Z,105.60
2018-10-18T10:46:38.995Z,94.50
2018-10-18T10:49:08.729Z,95.53
2018-10-18T10:51:38.213Z,91.50
2018-10-18T10:54:08.787Z,92.73
2018-10-18T10:56:37.890Z,98.85
2018-10-18T10:59:16.688Z,107.40
2018-10-18T11:01:45.811Z,89.80
2018-10-18T11:04:15.066Z,86.47
2018-10-18T11:06:44.244Z,96.63
2018-10-18T11:09:13.576Z,95.50
2018-10-18T11:11:42.731Z,82.90
2018-10-18T11:14:12.002Z,86.08
2018-10-18T11:16:41.019Z,91.95
2018-10-18T11:19:10.147Z,96.37
2018-10-18T11:21:39.352Z,100.55
2018-10-18T11:24:08.491Z,80.13
2018-10-18T11:26:37.688Z,85.77
2018-10-18T11:29:07.223Z,86.45
2018-10-18T11:31:37.126Z,86.82
2018-10-18T11:34:07.107Z,89.67
2018-10-18T11:36:37.053Z,94.34
2018-10-18T11:39:09.124Z,86.32
2018-10-18T11:41:38.325Z,86.97
2018-10-18T11:44:07.555Z,80.37
2018-10-18T11:46:37.365Z,79.70
2018-10-18T11:49:07.207Z,72.70
2018-10-18T11:51:37.365Z,72.48
2018-10-18T11:54:07.458Z,71.72
2018-10-18T11:56:37.274Z,60.50
2018-10-18T11:59:07.478Z,62.73
2018-10-18T12:01:37.329Z,57.88
2018-10-18T12:04:07.407Z,70.67
2018-10-18T12:06:37.514Z,60.12
2018-10-18T12:09:10.467Z,61.83
2018-10-18T12:11:39.712Z,56.10
2018-10-18T12:14:09.340Z,72.30
2018-10-18T12:16:38.558Z,56.10
2018-10-18T12:19:07.885Z,65.17
2018-10-18T12:21:37.591Z,56.90
2018-10-18T12:24:07.677Z,53.15
2018-10-18T12:26:37.695Z,56.56
2018-10-18T12:29:07.685Z,62.17
2018-10-18T12:31:37.754Z,51.12
2018-10-18T12:34:07.849Z,50.35
2018-10-18T12:36:37.764Z,46.06
2018-10-18T12:39:09.534Z,50.10
2018-10-18T12:41:38.803Z,54.80
2018-10-18T12:44:07.970Z,46.60
2018-10-18T12:46:37.899Z,52.08
2018-10-18T12:49:07.951Z,46.73
2018-10-18T12:51:37.941Z,51.34
2018-10-18T12:54:08.187Z,54.85
2018-10-18T12:56:37.924Z,51.02
2018-10-18T12:59:07.954Z,65.42
2018-10-18T13:01:38.001Z,50.22
2018-10-18T13:04:08.083Z,46.13
2018-10-18T13:06:38.035Z,64.32
2018-10-18T13:09:10.075Z,53.90
2018-10-18T13:11:40.327Z,45.20
2018-10-18T13:14:09.633Z,49.17
2018-10-18T13:16:38.754Z,57.00
2018-10-18T13:19:08.426Z,56.23
2018-10-18T13:21:38.306Z,50.17
2018-10-18T13:24:08.473Z,50.60
2018-10-18T13:26:38.567Z,52.65
2018-10-18T13:29:08.811Z,51.83
2018-10-18T13:31:38.358Z,60.94
2018-10-18T13:34:09.565Z,57.20
2018-10-18T13:36:38.553Z,64.60
2018-10-18T13:39:11.730Z,53.30
2018-10-18T13:41:40.815Z,57.25
2018-10-18T13:44:10.097Z,55.40
2018-10-18T13:46:39.799Z,60.08
2018-10-18T13:49:08.974Z,57.90
2018-10-18T13:51:38.489Z,50.24
2018-10-18T13:54:08.619Z,60.45
2018-10-18T13:56:38.618Z,55.22
2018-10-18T13:59:24.641Z,56.40
2018-10-18T14:01:53.657Z,53.30
2018-10-18T14:04:22.791Z,58.00
2018-10-18T14:06:51.948Z,55.70
2018-10-18T14:09:21.062Z,56.13
2018-10-18T14:11:50.214Z,60.17
2018-10-18T14:14:19.423Z,57.27
2018-10-18T14:16:48.579Z,65.45
2018-10-18T14:19:17.683Z,50.03
2018-10-18T14:21:46.800Z,75.72
2018-10-18T14:24:15.997Z,58.00
2018-10-18T14:26:45.163Z,53.33
2018-10-18T14:29:14.381Z,55.30
2018-10-18T14:31:43.407Z,60.78
2018-10-18T14:34:12.511Z,58.27
2018-10-18T14:36:42.563Z,49.67
2018-10-18T14:39:11.763Z,68.40
2018-10-18T14:41:40.890Z,53.53
2018-10-18T14:44:10.065Z,55.00
2018-10-18T14:46:39.164Z,52.50
2018-10-18T14:49:09.278Z,50.80
2018-10-18T14:51:40.367Z,55.32
2018-10-18T14:54:09.475Z,65.63
2018-10-18T14:56:39.284Z,49.33
2018-10-18T14:59:09.323Z,56.53
2018-10-18T15:01:39.397Z,54.26
2018-10-18T15:04:09.446Z,65.57
2018-10-18T15:06:39.502Z,80.28
2018-10-18T15:09:09.966Z,92.12
2018-10-18T15:11:39.535Z,68.10
2018-10-18T15:14:09.760Z,55.40
2018-10-18T15:16:39.566Z,58.08
2018-10-18T15:19:09.630Z,57.05
2018-10-18T15:21:39.571Z,61.14
2018-10-18T15:24:09.594Z,55.75
2018-10-18T15:26:39.746Z,58.54
2018-10-18T15:29:09.788Z,57.33
2018-10-18T15:31:40.023Z,53.46
2018-10-18T15:34:09.802Z,58.02
2018-10-18T15:36:39.858Z,55.58
2018-10-18T15:39:11.090Z,65.32
2018-10-18T15:41:40.920Z,52.70
2018-10-18T15:44:10.908Z,55.20
2018-10-18T15:46:40.061Z,54.85
2018-10-18T15:49:11.976Z,56.08
2018-10-18T15:51:41.198Z,59.25
2018-10-18T15:54:10.570Z,55.60
2018-10-18T15:56:40.620Z,53.26
2018-10-18T15:59:10.581Z,65.30
2018-10-18T16:01:40.746Z,68.94
2018-10-18T16:04:10.832Z,64.75
2018-10-18T16:06:40.767Z,63.28
2018-10-18T16:09:12.778Z,65.42
2018-10-18T16:11:41.954Z,56.77
2018-10-18T16:14:11.252Z,60.33
2018-10-18T16:16:41.849Z,61.25
2018-10-18T16:19:11.042Z,63.67
2018-10-18T16:21:40.902Z,58.14
2018-10-18T16:24:10.918Z,66.30
2018-10-18T16:26:40.903Z,53.24
2018-10-18T16:29:11.130Z,58.58
2018-10-18T16:31:41.014Z,62.06
2018-10-18T16:34:11.147Z,56.50
2018-10-18T16:36:41.101Z,56.85
2018-10-18T16:39:12.848Z,57.30
2018-10-18T16:41:42.469Z,60.93
2018-10-18T16:44:11.861Z,53.97
2018-10-18T16:46:41.235Z,55.73
2018-10-18T16:49:11.287Z,57.98
2018-10-18T16:51:41.382Z,52.24
2018-10-18T16:54:11.501Z,53.25
2018-10-18T16:56:41.331Z,63.23
2018-10-18T16:59:10.518Z,148.97
2018-10-18T17:01:39.597Z,99.47
2018-10-18T17:04:08.857Z,70.63
2018-10-18T17:06:37.835Z,92.77
2018-10-18T17:09:09.294Z,59.33
2018-10-18T17:11:38.641Z,57.90
2018-10-18T17:14:07.850Z,63.70
2018-10-18T17:16:36.894Z,53.92
2018-10-18T17:19:06.619Z,65.93
2018-10-18T17:21:35.758Z,62.70
2018-10-18T17:24:04.891Z,62.87
2018-10-18T17:26:34.028Z,64.15
2018-10-18T17:29:03.210Z,58.73
2018-10-18T17:31:32.274Z,63.78
2018-10-18T17:34:01.501Z,59.70
2018-10-18T17:36:30.649Z,60.37
2018-10-18T17:38:59.806Z,58.68
2018-10-18T17:41:28.931Z,71.82
2018-10-18T17:43:58.150Z,72.90
2018-10-18T17:46:27.539Z,58.90
2018-10-18T17:48:56.659Z,61.92
2018-10-18T17:51:25.711Z,51.63
2018-10-18T17:53:54.786Z,58.33
2018-10-18T17:56:23.984Z,60.28
2018-10-18T17:58:53.061Z,56.45
2018-10-18T18:01:22.246Z,58.25
2018-10-18T18:03:51.478Z,59.60
2018-10-18T18:06:20.959Z,64.90
2018-10-18T18:08:51.023Z,58.93
2018-10-18T18:11:20.211Z,59.63
2018-10-18T18:13:49.447Z,59.05
2018-10-18T18:16:18.606Z,58.20
2018-10-18T18:18:47.820Z,63.87
2018-10-18T18:21:17.002Z,65.57
2018-10-18T18:23:46.151Z,56.67
2018-10-18T18:26:15.278Z,59.57
2018-10-18T18:28:44.438Z,65.10
2018-10-18T18:31:13.801Z,64.30
2018-10-18T18:33:42.909Z,66.80
2018-10-18T18:36:12.854Z,63.75
2018-10-18T18:38:42.748Z,63.24
2018-10-18T18:41:12.937Z,62.35
2018-10-18T18:43:42.914Z,65.78
2018-10-18T18:46:13.008Z,58.85
2018-10-18T18:48:43.014Z,57.98
2018-10-18T18:51:12.967Z,58.83
2018-10-18T18:53:42.995Z,55.60
2018-10-18T18:56:13.033Z,61.65
2018-10-18T18:58:42.958Z,61.42
2018-10-18T19:01:13.002Z,55.95
2018-10-18T19:03:44.267Z,66.40
2018-10-18T19:06:13.477Z,61.20
2018-10-18T19:08:43.165Z,67.85
2018-10-18T19:11:13.103Z,64.80
2018-10-18T19:13:43.254Z,60.58
2018-10-18T19:16:13.320Z,71.20
2018-10-18T19:18:43.387Z,58.90
2018-10-18T19:21:13.555Z,63.15
2018-10-18T19:23:43.446Z,58.90
2018-10-18T19:26:14.575Z,65.60
2018-10-18T19:28:43.751Z,57.43
2018-10-18T19:31:13.590Z,57.08
2018-10-18T19:33:43.599Z,58.82
2018-10-18T19:36:13.605Z,63.68
2018-10-18T19:38:43.718Z,65.72
2018-10-18T19:41:13.756Z,62.20
2018-10-18T19:43:43.751Z,63.78
2018-10-18T19:46:13.910Z,56.55
2018-10-18T19:48:43.853Z,62.90
2018-10-18T19:51:13.886Z,65.05
2018-10-18T19:53:43.942Z,70.32
2018-10-18T19:56:13.964Z,66.27
2018-10-18T19:58:44.078Z,85.92
2018-10-18T20:01:14.090Z,59.55
2018-10-18T20:03:44.059Z,67.54
2018-10-18T20:06:14.230Z,61.80
2018-10-18T20:08:44.078Z,59.35
2018-10-18T20:11:14.219Z,69.15
2018-10-18T20:13:44.278Z,63.02
2018-10-18T20:16:14.209Z,72.70
2018-10-18T20:18:44.247Z,71.35
2018-10-18T20:21:14.355Z,64.62
2018-10-18T20:23:44.303Z,70.00
2018-10-18T20:26:14.608Z,66.15
2018-10-18T20:28:44.347Z,65.28
2018-10-18T20:31:14.434Z,75.05
2018-10-18T20:33:44.495Z,67.67
2018-10-18T20:36:14.472Z,71.17
2018-10-18T20:38:45.385Z,75.38
2018-10-18T20:41:14.648Z,70.47
2018-10-18T20:43:44.534Z,82.60
2018-10-18T20:46:14.479Z,66.45
2018-10-18T20:48:44.535Z,74.42
2018-10-18T20:51:14.540Z,72.25
2018-10-18T20:53:44.526Z,69.18
2018-10-18T20:56:14.608Z,70.25
2018-10-18T20:58:44.712Z,68.20
2018-10-18T21:01:14.751Z,76.05
2018-10-18T21:03:44.707Z,74.36
2018-10-18T21:06:14.702Z,72.82
2018-10-18T21:08:44.762Z,87.78
2018-10-18T21:11:14.736Z,74.25
2018-10-18T21:13:45.255Z,79.97
2018-10-18T21:16:14.931Z,72.75
2018-10-18T21:18:44.987Z,75.52
2018-10-18T21:21:15.092Z,76.42
2018-10-18T21:23:44.965Z,71.58
2018-10-18T21:26:14.921Z,72.58
2018-10-18T21:28:45.039Z,76.36
2018-10-18T21:31:15.011Z,76.77
2018-10-18T21:33:44.974Z,72.24
2018-10-18T21:36:14.994Z,74.37
2018-10-18T21:38:45.040Z,72.58
2018-10-18T21:41:15.035Z,72.62
2018-10-18T21:43:45.095Z,68.34
2018-10-18T21:46:15.187Z,77.97
2018-10-18T21:48:45.605Z,64.68
2018-10-18T21:51:17.267Z,82.22
2018-10-18T21:53:46.334Z,74.37
2018-10-18T21:56:15.563Z,74.47
2018-10-18T21:58:45.263Z,68.90
2018-10-18T22:01:15.375Z,77.08
2018-10-18T22:03:45.346Z,79.02
2018-10-18T22:06:15.350Z,77.53
2018-10-18T22:08:45.479Z,65.87
2018-10-18T22:11:15.502Z,80.12
2018-10-18T22:13:46.554Z,77.18
2018-10-18T22:16:15.785Z,75.57
2018-10-18T22:18:45.491Z,73.90
2018-10-18T22:21:15.616Z,69.27
2018-10-18T22:23:45.585Z,58.78
2018-10-18T22:26:15.568Z,74.25
2018-10-18T22:28:45.598Z,74.44
2018-10-18T22:31:15.635Z,85.87
2018-10-18T22:33:45.566Z,84.20
2018-10-18T22:36:15.808Z,72.53
2018-10-18T22:38:45.796Z,82.76
2018-10-18T22:41:15.842Z,72.80
2018-10-18T22:43:45.820Z,76.34
2018-10-18T22:46:15.780Z,75.00
2018-10-18T22:48:45.830Z,67.86
2018-10-18T22:51:15.881Z,76.22
2018-10-18T22:53:45.954Z,76.72
2018-10-18T22:56:16.066Z,77.03
2018-10-18T22:58:46.055Z,74.86
2018-10-18T23:01:16.074Z,79.47
2018-10-18T23:03:46.215Z,75.04
2018-10-18T23:06:16.021Z,83.67
2018-10-18T23:08:46.048Z,69.30
2018-10-18T23:11:16.118Z,75.67
2018-10-18T23:13:46.227Z,79.10
2018-10-18T23:16:16.147Z,77.27
2018-10-18T23:18:46.175Z,76.22
2018-10-18T23:21:16.263Z,74.67
2018-10-18T23:23:46.338Z,77.30
2018-10-18T23:26:16.382Z,78.30
2018-10-18T23:28:46.398Z,72.80
2018-10-18T23:31:16.410Z,82.42
2018-10-18T23:33:46.484Z,72.00
2018-10-18T23:36:16.400Z,80.62
2018-10-18T23:38:46.476Z,73.10
2018-10-18T23:41:16.543Z,70.08
2018-10-18T23:43:46.705Z,86.87
2018-10-18T23:46:16.644Z,74.05
2018-10-18T23:48:46.702Z,76.85
2018-10-18T23:51:16.739Z,77.03
2018-10-18T23:53:46.622Z,79.20
2018-10-18T23:56:16.800Z,76.17
2018-10-18T23:58:46.758Z,71.00
